Time;durP1;ratioP1;P1;durP2;ratioP2;P2;SDS_P1;SDS_P2;PMS_P1;PMS_P2;Temp;Humidity;BMP_temperature;BMP_pressure;BME280_temperature;BME280_humidity;BME280_pressure;Samples;Min_cycle;Max_cycle;Signal;HPM_P1;HPM_P2
2022/06/01 00:00:59;;;;;;;5.13;4.27;;;10.10;99.90;;;;;;5109142;28;20600;-51
2022/06/01 00:03:31;;;;;;;5.20;3.87;;;10.10;99.90;;;;;;5108337;28;20739;-51
2022/06/01 00:05:59;;;;;;;4.67;4.20;;;10.10;99.90;;;;;;5110017;28;20207;-50
2022/06/01 00:08:27;;;;;;;4.50;4.07;;;10.10;99.90;;;;;;5109533;28;20719;-51
2022/06/01 00:10:57;;;;;;;4.80;3.90;;;10.00;99.90;;;;;;5109906;28;20268;-51
2022/06/01 00:13:26;;;;;;;4.23;3.83;;;10.00;99.90;;;;;;5109543;28;20286;-50
2022/06/01 00:15:55;;;;;;;4.30;3.70;;;10.00;99.90;;;;;;5109221;28;20726;-51
2022/06/01 00:18:23;;;;;;;3.83;3.53;;;10.00;99.90;;;;;;5109730;28;20715;-51
2022/06/01 00:20:53;;;;;;;4.33;3.67;;;10.00;99.90;;;;;;5109816;28;20231;-51
2022/06/01 00:23:21;;;;;;;4.97;3.60;;;10.10;99.90;;;;;;5104202;28;20643;-50
2022/06/01 00:25:49;;;;;;;3.87;3.57;;;10.10;99.90;;;;;;5110178;28;20905;-51
2022/06/01 00:28:19;;;;;;;4.80;4.30;;;10.20;99.90;;;;;;5095230;28;20214;-51
2022/06/01 00:30:47;;;;;;;5.63;4.63;;;10.20;99.90;;;;;;5109480;28;20235;-51
2022/06/01 00:33:15;;;;;;;4.37;3.83;;;10.20;99.90;;;;;;5108891;28;20283;-51
2022/06/01 00:35:43;;;;;;;6.87;5.90;;;10.20;99.90;;;;;;5110289;28;20199;-51
2022/06/01 00:38:11;;;;;;;7.80;5.30;;;10.10;99.90;;;;;;5109403;28;20294;-51
2022/06/01 00:40:40;;;;;;;6.03;5.17;;;10.20;99.90;;;;;;5109767;28;20208;-51
2022/06/01 00:43:23;;;;;;;5.90;5.30;;;10.20;99.90;;;;;;5108777;28;20228;-51
2022/06/01 00:45:51;;;;;;;8.10;5.27;;;10.30;99.90;;;;;;5110076;28;20282;-50
2022/06/01 00:48:23;;;;;;;6.27;5.40;;;10.40;99.90;;;;;;5109487;28;20709;-51
2022/06/01 00:50:51;;;;;;;5.83;5.23;;;10.40;99.90;;;;;;5109371;28;20203;-51
2022/06/01 00:53:22;;;;;;;6.13;5.53;;;10.40;99.90;;;;;;5108327;28;20280;-50
2022/06/01 00:55:55;;;;;;;5.43;4.93;;;10.40;99.90;;;;;;5109525;28;20254;-51
2022/06/01 00:58:28;;;;;;;5.77;4.37;;;10.50;99.90;;;;;;5109722;28;20284;-51
2022/06/01 01:00:58;;;;;;;6.17;4.40;;;10.50;99.90;;;;;;5109488;28;20235;-51
2022/06/01 01:03:29;;;;;;;4.13;3.83;;;10.40;99.90;;;;;;5108587;28;20224;-51
2022/06/01 01:06:11;;;;;;;4.33;3.93;;;10.40;99.90;;;;;;5109202;28;20219;-52
2022/06/01 01:08:39;;;;;;;4.77;4.20;;;10.30;99.90;;;;;;5109016;28;20231;-51
2022/06/01 01:11:08;;;;;;;4.83;3.93;;;10.40;99.90;;;;;;5109441;28;20239;-51
2022/06/01 01:13:40;;;;;;;4.93;4.10;;;10.40;99.90;;;;;;5109872;28;20254;-51
2022/06/01 01:16:10;;;;;;;4.40;4.00;;;10.40;99.90;;;;;;5113093;28;20239;-51
2022/06/01 01:18:40;;;;;;;4.47;4.00;;;10.50;99.90;;;;;;5112748;28;20204;-51
2022/06/01 01:21:19;;;;;;;4.10;3.70;;;10.50;99.90;;;;;;5113164;28;20246;-51
2022/06/01 01:23:53;;;;;;;4.30;3.83;;;10.50;99.90;;;;;;5111543;28;20651;-51
2022/06/01 01:26:25;;;;;;;4.73;4.00;;;10.40;99.90;;;;;;5109515;28;20201;-51
2022/06/01 01:28:53;;;;;;;3.87;3.57;;;10.40;99.90;;;;;;5102691;28;20217;-51
2022/06/01 01:31:23;;;;;;;6.43;3.93;;;10.40;99.90;;;;;;5112111;28;20211;-51
2022/06/01 01:33:55;;;;;;;5.53;4.00;;;10.30;99.90;;;;;;5112227;28;20227;-51
2022/06/01 01:36:29;;;;;;;4.70;4.00;;;10.30;99.90;;;;;;5113012;28;20214;-50
2022/06/01 01:39:05;;;;;;;4.27;3.87;;;10.30;99.90;;;;;;5112576;28;20219;-51
2022/06/01 01:41:39;;;;;;;4.00;3.60;;;10.30;99.90;;;;;;5112240;28;20604;-51
2022/06/01 01:44:11;;;;;;;6.77;3.83;;;10.30;99.90;;;;;;5109648;28;20716;-50
2022/06/01 01:46:40;;;;;;;4.30;3.90;;;10.30;99.90;;;;;;5096209;28;20231;-51
2022/06/01 01:49:08;;;;;;;4.60;3.43;;;10.30;99.90;;;;;;5108873;28;20201;-50
2022/06/01 01:51:37;;;;;;;4.60;4.00;;;10.20;99.90;;;;;;5101578;28;20207;-51
2022/06/01 01:54:24;;;;;;;4.40;3.50;;;10.20;99.90;;;;;;5103075;28;20697;-51
2022/06/01 01:57:16;;;;;;;4.43;3.57;;;10.20;99.90;;;;;;5109861;28;20235;-51
2022/06/01 01:59:54;;;;;;;4.47;4.07;;;10.10;99.90;;;;;;5112584;28;20277;-51
2022/06/01 02:02:28;;;;;;;5.10;3.90;;;10.00;99.90;;;;;;5103998;28;20645;-49
2022/06/01 02:07:58;;;;;;;5.57;4.27;;;9.90;99.90;;;;;;5111580;28;20203;-50
2022/06/01 02:13:14;;;;;;;5.17;4.00;;;9.80;99.90;;;;;;5111777;28;20265;-51
2022/06/01 02:15:44;;;;;;;5.27;4.13;;;9.80;99.90;;;;;;5111782;28;20809;-50
2022/06/01 02:18:16;;;;;;;4.67;4.17;;;9.80;99.90;;;;;;5111237;28;20686;-50
2022/06/01 02:20:50;;;;;;;5.00;4.57;;;9.90;99.90;;;;;;5097561;28;20337;-51
2022/06/01 02:23:18;;;;;;;5.27;4.70;;;9.90;99.90;;;;;;5111551;28;20235;-50
2022/06/01 02:25:50;;;;;;;5.93;5.33;;;9.90;99.90;;;;;;5111306;28;20552;-51
2022/06/01 02:28:20;;;;;;;6.63;5.43;;;10.00;99.90;;;;;;5101844;28;20216;-51
2022/06/01 02:30:49;;;;;;;6.53;5.93;;;10.00;99.90;;;;;;5107941;28;20664;-51
2022/06/01 02:33:22;;;;;;;9.13;6.53;;;10.10;99.90;;;;;;5111333;28;20266;-50
2022/06/01 02:35:53;;;;;;;7.10;4.77;;;10.10;99.90;;;;;;5111632;28;20292;-51
2022/06/01 02:38:25;;;;;;;4.53;3.90;;;10.00;99.90;;;;;;5111163;28;20317;-51
2022/06/01 02:40:53;;;;;;;4.70;3.90;;;10.00;99.90;;;;;;5109553;28;20666;-51
2022/06/01 02:43:23;;;;;;;4.70;4.00;;;10.10;99.90;;;;;;5098792;28;20234;-51
2022/06/01 02:45:51;;;;;;;3.73;3.43;;;10.10;99.90;;;;;;5110052;28;20699;-50
2022/06/01 02:48:20;;;;;;;3.60;3.30;;;10.10;99.90;;;;;;5113905;28;20207;-50
2022/06/01 02:50:48;;;;;;;4.90;3.80;;;10.20;99.90;;;;;;5113889;28;20207;-51
2022/06/01 02:53:16;;;;;;;4.17;3.80;;;10.30;99.90;;;;;;5106778;28;20526;-51
2022/06/01 02:55:45;;;;;;;4.50;3.83;;;10.30;99.90;;;;;;5102097;28;20207;-51
2022/06/01 02:58:13;;;;;;;5.50;4.63;;;10.30;99.90;;;;;;5111398;28;20234;-51
2022/06/01 03:00:42;;;;;;;7.93;4.53;;;10.30;99.90;;;;;;5101626;28;20258;-51
2022/06/01 03:03:11;;;;;;;5.10;4.70;;;10.30;99.90;;;;;;5106508;28;20296;-51
2022/06/01 03:05:41;;;;;;;5.13;4.53;;;10.30;99.90;;;;;;5110964;28;20203;-50
2022/06/01 03:08:10;;;;;;;5.50;4.60;;;10.20;99.90;;;;;;5110855;28;20688;-51
2022/06/01 03:10:39;;;;;;;6.27;4.93;;;10.20;99.90;;;;;;5111225;28;20204;-51
2022/06/01 03:13:20;;;;;;;5.77;5.17;;;10.20;99.90;;;;;;5110243;28;20227;-51
2022/06/01 03:15:50;;;;;;;5.67;5.07;;;10.20;99.90;;;;;;5110308;28;20233;-51
2022/06/01 03:18:19;;;;;;;5.60;5.10;;;10.20;99.90;;;;;;5111328;28;20276;-51
2022/06/01 03:20:47;;;;;;;6.00;5.40;;;10.20;99.90;;;;;;5110576;28;20219;-51
2022/06/01 03:23:16;;;;;;;5.37;4.87;;;10.20;99.90;;;;;;5114891;27;20723;-50
2022/06/01 03:25:44;;;;;;;6.67;5.20;;;10.20;99.90;;;;;;5096032;28;20203;-50
2022/06/01 03:28:12;;;;;;;5.47;4.97;;;10.30;99.90;;;;;;5110776;28;20212;-51
2022/06/01 03:30:40;;;;;;;6.10;5.50;;;10.30;99.90;;;;;;5109569;28;20269;-51
2022/06/01 03:33:10;;;;;;;4.90;4.50;;;10.30;99.90;;;;;;5110529;28;20277;-50
2022/06/01 03:35:39;;;;;;;7.00;5.70;;;10.30;99.90;;;;;;5109961;28;20665;-50
2022/06/01 03:38:08;;;;;;;6.07;5.47;;;10.30;99.90;;;;;;5100485;28;20455;-51
2022/06/01 03:40:38;;;;;;;5.80;5.30;;;10.20;99.90;;;;;;5106567;28;20298;-50
2022/06/01 03:43:07;;;;;;;5.77;4.97;;;10.20;99.90;;;;;;5101096;28;20273;-51
2022/06/01 03:48:24;;;;;;;5.17;4.67;;;10.20;99.90;;;;;;5110035;28;20226;-50
2022/06/01 03:50:52;;;;;;;5.77;5.20;;;10.20;99.90;;;;;;5109865;28;20253;-51
2022/06/01 03:53:20;;;;;;;5.33;4.90;;;10.20;99.90;;;;;;5104470;28;20285;-51
2022/06/01 03:55:48;;;;;;;5.17;4.77;;;10.30;99.90;;;;;;5101288;28;20211;-51
2022/06/01 03:58:18;;;;;;;5.17;4.77;;;10.30;99.90;;;;;;5110284;28;20200;-51
2022/06/01 04:00:47;;;;;;;5.40;4.60;;;10.20;99.90;;;;;;5109964;28;20223;-51
2022/06/01 04:03:16;;;;;;;5.87;4.63;;;10.30;99.90;;;;;;5109187;28;20261;-51
2022/06/01 04:05:46;;;;;;;5.90;5.03;;;10.20;99.90;;;;;;5100128;28;20288;-51
2022/06/01 04:08:14;;;;;;;5.27;4.77;;;10.20;99.90;;;;;;5105235;28;20242;-51
2022/06/01 04:10:44;;;;;;;4.97;4.57;;;10.30;99.90;;;;;;5110047;28;20192;-51
2022/06/01 04:13:13;;;;;;;5.10;4.67;;;10.30;99.90;;;;;;5109715;28;20303;-51
2022/06/01 04:15:42;;;;;;;4.93;4.53;;;10.40;99.90;;;;;;5109228;28;20713;-50
2022/06/01 04:18:11;;;;;;;5.10;4.57;;;10.40;99.90;;;;;;5123552;27;20256;-51
2022/06/01 04:20:39;;;;;;;5.77;5.20;;;10.50;99.90;;;;;;5095918;28;20227;-51
2022/06/01 04:23:08;;;;;;;5.80;4.50;;;10.60;99.90;;;;;;5110256;28;20219;-51
2022/06/01 04:25:36;;;;;;;7.23;4.87;;;10.60;99.90;;;;;;5096498;28;20219;-51
2022/06/01 04:28:05;;;;;;;4.97;4.57;;;10.60;99.90;;;;;;5098759;28;20237;-50
2022/06/01 04:30:33;;;;;;;5.57;4.83;;;10.60;99.90;;;;;;5106648;28;20196;-51
2022/06/01 04:33:03;;;;;;;4.80;4.30;;;10.60;99.90;;;;;;5108914;28;20281;-52
2022/06/01 04:35:31;;;;;;;4.20;3.63;;;10.60;99.90;;;;;;5095186;28;20216;-51
2022/06/01 04:38:13;;;;;;;4.73;4.13;;;10.70;99.90;;;;;;5108923;28;20247;-52
2022/06/01 04:40:44;;;;;;;4.83;3.90;;;10.80;99.90;;;;;;5109560;28;20224;-52
2022/06/01 04:43:13;;;;;;;4.03;3.60;;;10.90;99.90;;;;;;5108733;28;20651;-51
2022/06/01 04:45:41;;;;;;;3.93;3.53;;;11.40;99.90;;;;;;5107924;28;20642;-51
2022/06/01 04:48:10;;;;;;;4.47;4.07;;;11.90;99.90;;;;;;5110580;28;20865;-51
2022/06/01 04:50:42;;;;;;;3.93;3.50;;;11.80;99.90;;;;;;5099201;28;20212;-52
2022/06/01 04:53:11;;;;;;;5.07;3.60;;;11.90;99.90;;;;;;5109477;28;20663;-52
2022/06/01 04:55:40;;;;;;;4.97;3.60;;;11.80;99.90;;;;;;5103200;28;20211;-52
2022/06/01 04:58:09;;;;;;;3.80;3.40;;;11.60;99.90;;;;;;5113942;28;20207;-51
2022/06/01 05:00:38;;;;;;;4.67;3.77;;;11.50;99.90;;;;;;5113058;28;20200;-51
2022/06/01 05:03:07;;;;;;;4.03;3.73;;;11.40;99.90;;;;;;5112931;28;20233;-51
2022/06/01 05:05:37;;;;;;;4.27;3.30;;;11.60;99.90;;;;;;5112621;28;20207;-51
2022/06/01 05:08:10;;;;;;;4.57;3.13;;;12.60;99.90;;;;;;5111984;28;20318;-52
2022/06/01 05:10:39;;;;;;;3.10;2.90;;;14.00;99.90;;;;;;5111293;27;20728;-52
2022/06/01 05:13:09;;;;;;;2.80;2.60;;;15.00;99.90;;;;;;5092326;28;20235;-51
2022/06/01 05:15:47;;;;;;;3.20;2.90;;;15.70;99.90;;;;;;5093018;28;20207;-52
2022/06/01 05:18:15;;;;;;;2.70;2.50;;;16.40;99.90;;;;;;5092648;28;20204;-51
2022/06/01 05:20:44;;;;;;;2.67;2.40;;;17.00;99.90;;;;;;5092991;28;20615;-52
2022/06/01 05:23:13;;;;;;;3.80;2.63;;;17.10;99.90;;;;;;5108743;28;20265;-51
2022/06/01 05:25:42;;;;;;;2.70;2.50;;;17.40;99.90;;;;;;5093401;28;20287;-51
2022/06/01 05:28:12;;;;;;;3.03;2.53;;;17.70;99.90;;;;;;5093904;28;20260;-52
2022/06/01 05:30:40;;;;;;;3.20;2.80;;;18.00;99.90;;;;;;5094579;28;20668;-52
2022/06/01 05:33:08;;;;;;;3.25;2.97;;;18.20;99.90;;;;;;5089796;28;20733;-52
2022/06/01 05:35:37;;;;;;;5.18;2.70;;;18.20;99.90;;;;;;5093992;28;20208;-52
2022/06/01 05:38:05;;;;;;;3.55;2.70;;;18.50;99.90;;;;;;5099874;28;20240;-51
2022/06/01 05:40:34;;;;;;;2.75;2.55;;;18.80;99.90;;;;;;5091746;28;20200;-52
2022/06/01 05:43:09;;;;;;;2.90;2.65;;;19.20;99.90;;;;;;5091400;28;20239;-51
2022/06/01 05:45:40;;;;;;;3.13;2.90;;;19.70;99.90;;;;;;5091578;28;20259;-51
2022/06/01 05:48:10;;;;;;;3.22;2.90;;;20.00;99.90;;;;;;5092816;28;20258;-51
2022/06/01 05:50:38;;;;;;;3.50;2.78;;;20.00;99.90;;;;;;5091688;28;20289;-52
2022/06/01 05:53:07;;;;;;;2.90;2.70;;;20.10;99.90;;;;;;5097624;28;20700;-51
2022/06/01 05:55:36;;;;;;;2.97;2.65;;;20.40;99.90;;;;;;5099729;28;20208;-52
2022/06/01 05:58:12;;;;;;;2.97;2.78;;;20.40;99.90;;;;;;5101057;28;20276;-51
2022/06/01 06:00:42;;;;;;;3.45;2.67;;;20.60;99.90;;;;;;5112047;28;20203;-52
2022/06/01 06:03:11;;;;;;;2.85;2.60;;;20.90;99.90;;;;;;5110276;28;20239;-51
2022/06/01 06:08:26;;;;;;;3.17;2.83;;;21.30;99.90;;;;;;5110571;28;20651;-52
2022/06/01 06:10:54;;;;;;;2.75;2.50;;;21.50;99.90;;;;;;5112572;28;20238;-52
2022/06/01 06:13:22;;;;;;;2.80;2.60;;;21.60;99.90;;;;;;5111117;28;20640;-51
2022/06/01 06:15:51;;;;;;;3.08;2.58;;;21.90;99.90;;;;;;5111842;28;20242;-52
2022/06/01 06:18:19;;;;;;;2.78;2.55;;;22.00;99.90;;;;;;5111677;28;20265;-52
2022/06/01 06:20:47;;;;;;;2.75;2.55;;;21.80;99.90;;;;;;5111593;28;20200;-52
2022/06/01 06:23:15;;;;;;;2.88;2.60;;;21.80;99.90;;;;;;5110248;28;20263;-52
2022/06/01 06:25:44;;;;;;;2.50;2.30;;;21.90;99.90;;;;;;5112099;28;20233;-51
2022/06/01 06:28:12;;;;;;;3.30;3.00;;;21.80;99.90;;;;;;5114236;28;20231;-51
2022/06/01 06:30:41;;;;;;;3.47;2.60;;;22.00;99.90;;;;;;5114094;28;20640;-51
2022/06/01 06:33:10;;;;;;;3.00;2.70;;;22.00;99.90;;;;;;5111513;28;20255;-52
2022/06/01 06:35:39;;;;;;;2.80;2.60;;;22.30;99.90;;;;;;5111802;28;20257;-52
2022/06/01 06:38:07;;;;;;;3.35;2.58;;;22.40;99.90;;;;;;5111315;28;20300;-52
2022/06/01 06:40:35;;;;;;;4.38;2.88;;;22.50;99.90;;;;;;5106641;28;20559;-52
2022/06/01 06:43:03;;;;;;;3.35;2.55;;;22.50;99.90;;;;;;5090639;28;20264;-52
2022/06/01 06:45:31;;;;;;;3.67;3.03;;;22.70;99.90;;;;;;5104039;28;20723;-52
2022/06/01 06:47:59;;;;;;;3.80;2.88;;;23.10;99.90;;;;;;5118606;27;20203;-52
2022/06/01 06:50:28;;;;;;;3.10;2.80;;;22.80;99.90;;;;;;5112980;28;20729;-52
2022/06/01 06:53:17;;;;;;;4.05;2.63;;;22.90;99.90;;;;;;5106369;28;20229;-52
2022/06/01 06:55:45;;;;;;;3.13;2.83;;;23.00;99.90;;;;;;5089341;28;20969;-52
2022/06/01 06:58:13;;;;;;;3.72;2.70;;;23.20;99.90;;;;;;5108462;28;20199;-52
2022/06/01 07:00:42;;;;;;;2.90;2.70;;;23.10;99.90;;;;;;5110945;28;20215;-52
2022/06/01 07:03:10;;;;;;;3.92;2.78;;;22.90;99.90;;;;;;5110184;28;20274;-52
2022/06/01 07:08:26;;;;;;;3.08;2.78;;;23.00;99.90;;;;;;5093713;28;20207;-52
2022/06/01 07:10:54;;;;;;;2.78;2.58;;;23.00;99.90;;;;;;5109911;28;20265;-52
2022/06/01 07:13:23;;;;;;;3.10;2.80;;;23.30;99.90;;;;;;5110311;28;20402;-52
2022/06/01 07:16:01;;;;;;;3.00;2.70;;;23.60;99.90;;;;;;5110779;28;20633;-52
2022/06/01 07:18:29;;;;;;;3.92;2.75;;;23.30;99.90;;;;;;5110503;28;20208;-52
2022/06/01 07:20:59;;;;;;;3.20;2.88;;;23.60;99.90;;;;;;5110281;28;20203;-52
2022/06/01 07:23:34;;;;;;;3.08;2.50;;;23.50;99.90;;;;;;5104584;28;20254;-51
2022/06/01 07:26:03;;;;;;;2.80;2.60;;;22.50;99.90;;;;;;5102259;28;20228;-52
2022/06/01 07:28:31;;;;;;;3.58;2.58;;;22.70;99.90;;;;;;5089176;28;20211;-52
2022/06/01 07:30:59;;;;;;;2.85;2.65;;;22.50;99.90;;;;;;5095236;28;20274;-52
2022/06/01 07:33:29;;;;;;;3.03;2.42;;;22.90;99.90;;;;;;5089163;28;20217;-51
2022/06/01 07:36:00;;;;;;;2.50;2.30;;;23.00;99.90;;;;;;5081151;28;20705;-52
2022/06/01 07:44:06;;;;;;;3.97;2.42;;;22.50;99.90;;;;;;5089461;28;20266;-52
2022/06/01 07:46:35;;;;;;;3.22;2.55;;;22.20;99.90;;;;;;5089626;28;20257;-52
2022/06/01 07:49:04;;;;;;;4.32;2.50;;;22.70;99.90;;;;;;5093598;28;20216;-52
2022/06/01 07:51:54;;;;;;;3.33;2.28;;;23.20;99.90;;;;;;5091213;28;20673;-52
2022/06/01 07:54:23;;;;;;;2.70;2.50;;;23.40;99.90;;;;;;5089577;28;20220;-52
2022/06/01 07:56:51;;;;;;;2.60;2.40;;;23.60;99.90;;;;;;5109862;28;20571;-52
2022/06/01 07:59:19;;;;;;;2.92;2.35;;;23.80;99.90;;;;;;5110388;28;20242;-52
2022/06/01 08:01:47;;;;;;;2.13;2.00;;;23.80;99.90;;;;;;5109234;28;20621;-51
2022/06/01 08:04:16;;;;;;;2.88;2.40;;;23.80;99.90;;;;;;5109597;28;20263;-51
2022/06/01 08:06:44;;;;;;;3.65;2.55;;;23.00;99.90;;;;;;5109861;28;20574;-52
2022/06/01 08:09:24;;;;;;;2.85;2.17;;;22.50;99.90;;;;;;5110230;28;20210;-51
2022/06/01 08:14:38;;;;;;;2.28;2.08;;;22.10;99.90;;;;;;5109362;28;20981;-51
2022/06/01 08:17:06;;;;;;;3.15;2.10;;;22.20;99.90;;;;;;5109498;28;20235;-51
2022/06/01 08:19:34;;;;;;;2.72;2.25;;;22.10;99.90;;;;;;5109457;28;20688;-50
2022/06/01 08:22:02;;;;;;;3.00;2.20;;;22.20;99.90;;;;;;5104096;28;20208;-50
2022/06/01 08:24:32;;;;;;;3.75;2.20;;;22.00;99.90;;;;;;5094912;28;20238;-51
2022/06/01 08:27:01;;;;;;;4.05;2.22;;;21.90;99.90;;;;;;5109771;28;20241;-51
2022/06/01 08:29:29;;;;;;;2.47;2.15;;;22.00;99.90;;;;;;5109344;28;20290;-51
2022/06/01 08:31:57;;;;;;;2.40;2.20;;;21.90;99.90;;;;;;5108593;28;20208;-51
2022/06/01 08:34:25;;;;;;;2.50;2.30;;;21.70;99.90;;;;;;5109604;28;20216;-51
2022/06/01 08:36:53;;;;;;;3.45;2.38;;;21.70;99.90;;;;;;5109030;28;20261;-51
2022/06/01 08:39:21;;;;;;;4.95;2.20;;;21.90;99.90;;;;;;5108536;28;20235;-51
2022/06/01 08:41:51;;;;;;;2.33;2.03;;;22.00;99.90;;;;;;5109009;28;20207;-51
2022/06/01 08:44:24;;;;;;;5.13;2.28;;;22.00;99.90;;;;;;5094912;28;20227;-51
2022/06/01 08:46:56;;;;;;;2.50;1.95;;;21.90;99.90;;;;;;5109712;28;20631;-50
2022/06/01 08:49:26;;;;;;;3.42;2.08;;;22.00;99.90;;;;;;5104985;28;20287;-51
2022/06/01 08:51:55;;;;;;;17.45;7.80;;;21.70;99.90;;;;;;5108351;28;20203;-51
2022/06/01 08:54:23;;;;;;;4.28;2.80;;;21.70;99.90;;;;;;5095337;28;20302;-51
2022/06/01 08:56:56;;;;;;;8.35;3.35;;;22.00;99.90;;;;;;5109468;28;20640;-51
2022/06/01 08:59:40;;;;;;;9.40;3.85;;;22.10;99.90;;;;;;5109203;28;20207;-51
2022/06/01 09:02:23;;;;;;;6.57;3.20;;;21.90;99.90;;;;;;5095994;28;20203;-51
2022/06/01 09:04:57;;;;;;;4.22;2.72;;;21.70;99.90;;;;;;5109083;28;20284;-51
2022/06/01 09:07:31;;;;;;;3.42;1.90;;;21.50;99.90;;;;;;5109260;28;20589;-52
2022/06/01 09:10:17;;;;;;;1.90;1.70;;;21.70;99.90;;;;;;5094753;28;20265;-51
2022/06/01 09:13:00;;;;;;;4.78;2.63;;;21.80;99.90;;;;;;5108513;28;20234;-51
2022/06/01 09:15:30;;;;;;;1.95;1.67;;;21.70;99.90;;;;;;5109245;28;20237;-51
2022/06/01 09:18:01;;;;;;;2.47;1.80;;;21.80;99.90;;;;;;5108585;28;20664;-51
2022/06/01 09:23:17;;;;;;;2.90;1.80;;;21.40;99.90;;;;;;5106720;28;20322;-51
2022/06/01 09:25:51;;;;;;;3.03;2.20;;;21.40;99.90;;;;;;5109002;28;20616;-51
2022/06/01 09:28:23;;;;;;;3.42;2.20;;;21.30;99.90;;;;;;5108297;28;20248;-51
2022/06/01 09:31:02;;;;;;;2.60;1.90;;;21.30;99.90;;;;;;5109116;28;20204;-52
2022/06/01 09:33:32;;;;;;;2.13;1.90;;;21.00;99.90;;;;;;5107908;28;20254;-52
2022/06/01 09:36:25;;;;;;;2.90;2.25;;;21.20;99.90;;;;;;5112956;28;20582;-52
2022/06/01 09:38:55;;;;;;;4.18;2.20;;;21.00;99.90;;;;;;5112970;28;20688;-52
2022/06/01 09:41:30;;;;;;;3.17;2.42;;;20.90;99.90;;;;;;5115849;28;20227;-51
2022/06/01 09:44:03;;;;;;;2.78;2.22;;;20.90;99.90;;;;;;5114114;28;20538;-52
2022/06/01 09:46:35;;;;;;;2.15;1.95;;;21.10;99.90;;;;;;5112505;28;20200;-52
2022/06/01 09:49:09;;;;;;;3.13;2.05;;;21.50;99.90;;;;;;5112565;28;20698;-52
2022/06/01 09:51:41;;;;;;;2.22;1.73;;;21.50;99.90;;;;;;5112101;28;20258;-52
2022/06/01 09:54:13;;;;;;;3.03;1.90;;;21.20;99.90;;;;;;5100243;28;20281;-52
2022/06/01 09:56:46;;;;;;;2.63;2.00;;;21.40;99.90;;;;;;5107414;28;20230;-52
2022/06/01 10:07:48;;;;;;;2.65;1.92;;;21.10;99.90;;;;;;5092649;28;20253;-52
2022/06/01 10:10:25;;;;;;;2.55;2.00;;;21.10;99.90;;;;;;5091845;28;20200;-52
2022/06/01 10:12:55;;;;;;;2.20;2.00;;;21.10;99.90;;;;;;5097014;28;20235;-52
2022/06/01 10:15:32;;;;;;;2.95;2.00;;;21.00;99.90;;;;;;5093505;28;20714;-52
2022/06/01 10:18:11;;;;;;;2.30;2.10;;;21.10;99.90;;;;;;5091576;28;20929;-52
2022/06/01 10:20:45;;;;;;;2.35;1.92;;;21.30;99.90;;;;;;5091337;28;20673;-52
2022/06/01 10:23:19;;;;;;;1.85;1.67;;;21.40;99.90;;;;;;5104411;28;20259;-52
2022/06/01 10:25:52;;;;;;;1.80;1.70;;;21.60;99.90;;;;;;5104119;28;20200;-52
2022/06/01 10:28:26;;;;;;;2.83;1.85;;;21.40;99.90;;;;;;5091688;28;20236;-52
2022/06/01 10:31:28;;;;;;;2.08;1.70;;;21.30;99.90;;;;;;5090861;28;20212;-52
2022/06/01 10:34:03;;;;;;;2.05;1.80;;;21.20;99.90;;;;;;5090698;28;20219;-52
2022/06/01 10:36:44;;;;;;;1.60;1.50;;;21.20;99.90;;;;;;5090562;28;20204;-52
2022/06/01 10:39:19;;;;;;;2.20;1.90;;;21.50;99.90;;;;;;5090907;28;20236;-52
2022/06/01 10:41:52;;;;;;;2.45;1.75;;;21.70;99.90;;;;;;5090443;28;20274;-52
2022/06/01 10:44:26;;;;;;;1.90;1.70;;;21.50;99.90;;;;;;5090075;28;20753;-52
2022/06/01 10:47:01;;;;;;;3.53;1.90;;;21.20;99.90;;;;;;5102914;27;20626;-52
2022/06/01 10:49:41;;;;;;;2.00;1.77;;;21.00;99.80;;;;;;5090657;28;20204;-52
2022/06/01 10:52:21;;;;;;;2.58;1.90;;;20.90;99.90;;;;;;5094969;28;20203;-52
2022/06/01 10:55:02;;;;;;;1.90;1.60;;;20.80;99.90;;;;;;5093074;28;20227;-52
2022/06/01 10:57:31;;;;;;;1.50;1.40;;;20.80;99.90;;;;;;5111346;28;20249;-52
2022/06/01 10:59:59;;;;;;;3.80;1.80;;;20.80;99.90;;;;;;5110186;28;20227;-52
2022/06/01 11:02:57;;;;;;;2.42;2.00;;;20.90;99.90;;;;;;5110766;28;20203;-52
2022/06/01 11:05:35;;;;;;;1.80;1.67;;;21.10;99.90;;;;;;5093707;28;20389;-52
2022/06/01 11:08:24;;;;;;;3.22;2.08;;;21.20;99.60;;;;;;5110867;28;20199;-52
2022/06/01 11:11:02;;;;;;;3.42;1.85;;;21.20;99.90;;;;;;5099235;28;20598;-52
2022/06/01 11:13:46;;;;;;;3.00;1.80;;;21.20;99.90;;;;;;5106453;28;20223;-52
2022/06/01 11:16:25;;;;;;;2.05;1.60;;;21.00;99.90;;;;;;5110760;28;20204;-52
2022/06/01 11:19:08;;;;;;;2.55;1.88;;;20.90;99.90;;;;;;5103271;28;20250;-52
2022/06/01 11:21:44;;;;;;;2.13;1.85;;;20.90;99.90;;;;;;5104797;27;20323;-52
2022/06/01 11:24:35;;;;;;;2.05;1.85;;;20.80;99.90;;;;;;5097260;28;20227;-52
2022/06/01 11:27:22;;;;;;;2.28;2.08;;;21.00;99.90;;;;;;5107625;28;20549;-51
2022/06/01 11:30:06;;;;;;;2.65;2.40;;;20.80;99.90;;;;;;5109279;28;20272;-51
2022/06/01 11:32:43;;;;;;;5.50;2.08;;;20.80;99.90;;;;;;5110187;28;20824;-51
2022/06/01 11:35:20;;;;;;;3.97;2.10;;;20.50;99.90;;;;;;5111105;28;20543;-51
2022/06/01 11:37:55;;;;;;;1.90;1.80;;;20.80;99.90;;;;;;5106995;28;20207;-51
2022/06/01 11:40:34;;;;;;;3.70;2.00;;;20.90;99.90;;;;;;5110316;28;20206;-52
2022/06/01 11:43:07;;;;;;;3.75;2.00;;;20.80;99.90;;;;;;5109830;28;20269;-51
2022/06/01 11:45:40;;;;;;;1.85;1.70;;;20.80;99.90;;;;;;5109963;28;20246;-51
2022/06/01 11:48:10;;;;;;;1.73;1.60;;;21.10;99.90;;;;;;5114302;27;20285;-52
2022/06/01 11:53:36;;;;;;;3.45;1.70;;;21.40;99.90;;;;;;5073439;28;20582;-50
2022/06/01 11:56:15;;;;;;;2.45;1.60;;;21.30;98.60;;;;;;5066346;28;20245;-50
2022/06/01 11:58:55;;;;;;;1.90;1.63;;;21.30;99.90;;;;;;5066942;28;20213;-50
2022/06/01 12:01:37;;;;;;;3.60;1.80;;;21.40;99.90;;;;;;5066095;28;20330;-50
2022/06/01 12:04:21;;;;;;;2.15;1.95;;;21.50;99.90;;;;;;5066213;28;20252;-50
2022/06/01 12:07:05;;;;;;;1.98;1.50;;;21.40;98.60;;;;;;5056807;28;20197;-51
2022/06/01 12:09:47;;;;;;;1.88;1.60;;;21.20;98.90;;;;;;5060385;28;20213;-50
2022/06/01 12:12:46;;;;;;;1.58;1.45;;;21.40;99.90;;;;;;5060611;28;20576;-50
2022/06/01 12:15:19;;;;;;;2.65;1.23;;;21.50;99.90;;;;;;5065685;28;20208;-51
2022/06/01 12:18:18;;;;;;;1.98;1.27;;;21.60;98.40;;;;;;5065796;28;20673;-51
2022/06/01 12:20:50;;;;;;;2.65;1.33;;;21.60;97.70;;;;;;5065314;28;20258;-50
2022/06/01 12:30:10;;;;;;;1.85;1.40;;;21.60;99.10;;;;;;5025056;28;20213;-51
2022/06/01 12:33:09;;;;;;;1.85;1.40;;;21.60;96.00;;;;;;5060678;28;20236;-50
2022/06/01 12:35:50;;;;;;;1.40;1.30;;;21.60;97.80;;;;;;5032251;28;20735;-51
2022/06/01 12:38:23;;;;;;;2.53;1.50;;;21.50;96.20;;;;;;5062103;28;20303;-51
2022/06/01 12:40:58;;;;;;;1.45;1.30;;;21.50;98.30;;;;;;5064800;28;20232;-51
2022/06/01 12:43:29;;;;;;;2.47;1.45;;;21.50;97.00;;;;;;5062151;28;20720;-52
2022/06/01 12:45:58;;;;;;;1.35;1.17;;;21.20;96.70;;;;;;5065327;28;20208;-51
2022/06/01 12:48:27;;;;;;;1.40;1.30;;;21.10;96.50;;;;;;5064683;28;20220;-51
2022/06/01 12:50:57;;;;;;;1.20;1.10;;;20.90;96.20;;;;;;5062491;28;20704;-51
2022/06/01 12:53:39;;;;;;;1.60;1.20;;;20.60;95.50;;;;;;5063756;28;20259;-52
2022/06/01 12:56:10;;;;;;;1.77;1.50;;;20.50;96.10;;;;;;5061624;28;20721;-52
2022/06/01 12:58:40;;;;;;;5.00;1.40;;;20.50;97.00;;;;;;5061222;28;20276;-52
2022/06/01 13:01:09;;;;;;;1.65;1.23;;;20.70;96.80;;;;;;5062047;28;20290;-51
2022/06/01 13:03:44;;;;;;;2.90;1.30;;;21.00;97.50;;;;;;5055644;28;20624;-52
2022/06/01 13:06:17;;;;;;;2.42;1.50;;;21.00;95.50;;;;;;5048645;28;20342;-51
2022/06/01 13:08:55;;;;;;;2.45;1.40;;;20.70;95.60;;;;;;5049397;28;20715;-51
2022/06/01 13:11:26;;;;;;;2.20;1.52;;;20.70;95.80;;;;;;5046875;28;20252;-52
2022/06/01 13:13:58;;;;;;;2.72;1.77;;;20.70;97.00;;;;;;5048308;28;20251;-52
2022/06/01 13:16:35;;;;;;;2.08;1.60;;;20.70;96.80;;;;;;5047792;28;20229;-52
2022/06/01 13:19:16;;;;;;;1.98;1.30;;;20.80;97.60;;;;;;5035499;28;20292;-53
2022/06/01 13:21:49;;;;;;;2.72;1.50;;;20.80;97.40;;;;;;5047509;28;20760;-52
2022/06/01 13:24:19;;;;;;;2.42;1.63;;;20.80;97.60;;;;;;5048722;28;20257;-52
2022/06/01 13:26:51;;;;;;;2.28;1.50;;;20.90;97.10;;;;;;5048175;28;20659;-52
2022/06/01 13:29:23;;;;;;;1.83;1.20;;;21.20;96.60;;;;;;5049487;28;20206;-52
2022/06/01 13:31:54;;;;;;;1.52;1.25;;;21.30;95.10;;;;;;5043867;28;20209;-52
2022/06/01 13:34:29;;;;;;;1.13;1.02;;;21.30;92.90;;;;;;5035636;28;20259;-52
2022/06/01 13:37:07;;;;;;;2.15;1.33;;;21.20;93.90;;;;;;5048983;28;20258;-52
2022/06/01 13:39:41;;;;;;;1.05;0.98;;;21.10;93.00;;;;;;5036130;28;20245;-52
2022/06/01 13:42:09;;;;;;;2.38;1.27;;;21.20;95.40;;;;;;5046945;28;20279;-52
2022/06/01 13:44:55;;;;;;;1.80;1.23;;;21.40;94.70;;;;;;5050637;28;20263;-51
2022/06/01 13:47:31;;;;;;;2.83;1.70;;;21.40;95.60;;;;;;5051884;28;20682;-51
2022/06/01 13:50:04;;;;;;;2.58;1.40;;;21.40;95.10;;;;;;5039905;28;20304;-52
2022/06/01 13:52:33;;;;;;;1.95;1.30;;;21.40;95.50;;;;;;5043856;28;20776;-52
2022/06/01 13:55:09;;;;;;;1.35;1.05;;;21.30;96.30;;;;;;5049151;28;20205;-51
2022/06/01 13:57:49;;;;;;;1.88;1.10;;;21.00;93.20;;;;;;5049648;28;20210;-51